Latest Coastal Weather Observations for Port Macquarie Airport

IDN60701

Issued at 4:42 pm EDT Thursday 23 January 2020 (issued every 10 minutes, with the page automatically refreshed every 10 minutes)

About coastal observations | Map of coastal stations | Coastal observations for NSW | Marine services | Other Formats
Station Details ID: 060139 Name: PORT MACQUARIE AIRPORT AWS Lat: -31.43 Lon: 152.87 Height: 4.2 m
Data from the previous 72 hours. | See also: Recent months at Port Macquarie Airport
Date/Time
EDT
Wind Sea
Height
m
Swell Vis
km
Cloud Weather Temp
°C
Press
hPa
Rain since
9am
mm
Dir  Spd
kts
Gust
kts
Height
m
Period
s
Dir
23/04:30pm NE 13 19 - - - - 10 Clear - 28.8 1003.8 0.0
23/04:00pm NNE 16 21 - - - - 10 - - 28.7 1004.2 0.0
23/03:30pm NNE 16 21 - - - - 10 Partly cloudy - 28.9 1004.3 0.0
23/03:00pm NNE 17 23 - - - - 10 Mostly clear - 30.4 1004.4 0.0
23/02:30pm NE 17 26 - - - - 10 - - 32.2 1004.4 0.0
23/02:00pm NNE 18 26 - - - - 10 - - 33.9 1004.5 0.0
23/01:30pm NE 13 18 - - - - 10 - - 34.3 1004.8 0.0
23/01:00pm NE 14 21 - - - - 10 - - 34.2 1005.4 0.0
23/12:30pm NE 14 19 - - - - 10 - - 34.3 1005.7 0.0
23/12:00pm NE 12 17 - - - - 10 - - 33.7 1006.2 0.0
23/11:30am NE 11 15 - - - - 10 - - 33.8 1006.5 0.0
23/11:00am NNE 9 15 - - - - 10 - - 34.0 1006.7 0.0
23/10:30am N 12 17 - - - - 10 - - 34.4 1007.2 0.0
23/10:00am N 12 16 - - - - 10 - - 32.9 1007.5 0.0
23/09:30am N 11 15 - - - - 10 - - 31.5 1008.1 0.0
23/09:00am NNE 11 15 - - - - 10 - - 29.9 1008.4 0.0
23/08:30am N 10 14 - - - - 10 - - 28.3 1008.6 0.0
23/08:00am N 10 13 - - - - 10 - - 26.2 1008.7 0.0
23/07:30am N 9 11 - - - - 10 - - 24.8 1008.5 0.0
23/07:00am N 8 10 - - - - 10 - - 24.0 1008.2 0.0
23/06:30am N 8 10 - - - - 10 - - 23.6 1007.8 0.0
23/06:00am N 7 9 - - - - 10 Mostly clear - 23.4 1007.8 0.0
23/05:30am N 7 8 - - - - 10 - - 23.4 1007.5 0.0
23/05:00am N 6 8 - - - - 10 - - 23.3 1007.4 0.0
23/04:30am NNE 8 9 - - - - 10 - - 23.6 1007.1 0.0
23/04:00am N 5 7 - - - - 10 - - 23.6 1007.3 0.0
23/03:30am N 6 8 - - - - 10 Partly cloudy - 23.8 1007.3 0.0
23/03:00am N 5 7 - - - - 10 Partly cloudy - 24.1 1007.4 0.0
23/02:58am N 5 6 - - - - 10 Partly cloudy - 24.0 1007.4 0.0
23/02:33am N 6 8 - - - - 10 Partly cloudy - 24.4 1007.6 0.0
23/02:30am N 7 8 - - - - 10 Partly cloudy - 24.4 1007.6 0.0
23/02:00am N 6 8 - - - - 10 Partly cloudy - 24.6 1007.7 0.0
23/01:36am N 6 8 - - - - 10 Partly cloudy - 24.8 1007.8 0.0
23/01:30am N 6 8 - - - - 10 Partly cloudy - 24.8 1008.0 0.0
23/01:00am N 6 8 - - - - 10 Cloudy - 25.2 1008.2 0.0
23/12:30am NNE 5 7 - - - - 10 Cloudy - 25.1 1008.6 0.0
23/12:00am NNE 8 10 - - - - 10 Mostly cloudy - 25.2 1008.8 0.0
 
Date/Time
EDT
Wind Sea
Height
m
Swell Vis
km
Cloud Weather Temp
°C
Press
hPa
Rain since
9am
mm
Dir  Spd
kts
Gust
kts
Height
m
Period
s
Dir
22/11:30pm NE 6 8 - - - - 10 Cloudy - 25.3 1009.0 0.0
22/11:00pm NNE 7 8 - - - - 10 Cloudy - 25.4 1009.1 0.0
22/10:30pm NE 5 8 - - - - 10 Cloudy - 25.4 1009.1 0.0
22/10:00pm NNE 8 11 - - - - 10 Cloudy - 25.7 1009.2 0.0
22/09:30pm NNE 8 11 - - - - 10 Partly cloudy - 25.5 1009.1 0.0
22/09:20pm NE 7 11 - - - - 10 Partly cloudy - 25.3 1008.9 0.0
22/09:00pm ENE 5 6 - - - - 10 - - 24.5 1008.7 0.0
22/08:30pm NE 6 8 - - - - 10 Partly cloudy - 24.8 1008.7 0.0
22/08:00pm NE 7 10 - - - - 10 Partly cloudy - 25.3 1008.4 0.0
22/07:30pm NE 8 11 - - - - 10 - - 26.1 1008.1 0.0
22/07:00pm NE 8 10 - - - - 10 - - 27.3 1007.9 0.0
22/06:30pm NE 11 14 - - - - 10 - - 27.6 1007.6 0.0
22/06:00pm NE 10 15 - - - - 10 Mostly clear - 27.2 1007.6 0.0
22/05:30pm NE 11 16 - - - - 10 - - 27.1 1007.5 0.0
22/05:00pm ENE 12 16 - - - - 10 Partly cloudy - 27.5 1007.5 0.0
22/04:30pm ENE 15 19 - - - - 10 - - 27.7 1007.8 0.0
22/04:00pm ENE 13 17 - - - - 10 - - 28.6 1008.2 0.0
22/03:30pm ENE 12 16 - - - - 10 - - 28.9 1008.3 0.0
22/03:00pm ENE 9 13 - - - - 10 - - 30.3 1008.4 0.0
22/02:30pm E 11 14 - - - - 10 - - 29.8 1008.7 0.0
22/02:00pm E 11 13 - - - - 10 - - 30.2 1009.0 0.0
22/01:30pm E 10 14 - - - - 10 - - 31.1 1009.3 0.0
22/01:00pm E 9 13 - - - - 10 - - 30.7 1009.7 0.0
22/12:30pm ESE 9 12 - - - - 10 - - 30.8 1010.0 0.0
22/12:00pm SE 9 12 - - - - 10 - - 30.5 1010.4 0.0
22/11:30am ENE 6 9 - - - - 10 - - 32.1 1010.5 0.0
22/11:00am NNE 5 7 - - - - 10 - - 30.4 1010.9 0.0
22/10:30am ESE 3 5 - - - - 10 - - 30.1 1011.1 0.0
22/10:00am W 3 4 - - - - 10 - - 29.1 1011.0 0.0
22/09:30am WNW 4 7 - - - - 10 - - 28.0 1011.0 0.0
22/09:00am WNW 5 7 - - - - 10 - - 26.9 1011.0 0.0
22/08:30am W 5 7 - - - - 10 - - 25.7 1011.0 0.0
22/08:00am W 4 7 - - - - 10 - - 24.6 1011.0 0.0
22/07:30am W 3 5 - - - - 10 - - 23.6 1010.6 0.0
22/07:00am W 2 4 - - - - 10 - - 21.9 1010.3 0.0
22/06:30am WSW 2 5 - - - - 10 - - 20.6 1009.9 0.0
22/06:00am W 2 4 - - - - 10 - - 20.5 1009.7 0.0
22/05:30am CALM 0 0 - - - - 10 - - 20.9 1009.1 0.0
22/05:00am WSW 2 3 - - - - 10 - - 21.8 1008.9 0.0
22/04:30am WSW 3 4 - - - - 10 - - 21.9 1008.8 0.0
22/04:00am WSW 3 4 - - - - 10 - - 22.4 1008.9 0.0
22/03:30am WSW 3 4 - - - - 10 Partly cloudy - 23.3 1009.0 0.0
22/03:21am WSW 4 5 - - - - 10 Partly cloudy - 23.5 1009.0 0.0
22/03:00am WSW 5 6 - - - - 10 Cloudy - 24.0 1009.1 0.0
22/02:30am WNW 5 6 - - - - 10 Cloudy - 24.0 1009.3 0.0
22/02:00am WNW 4 5 - - - - 10 Cloudy - 23.9 1009.3 0.0
22/01:30am NW 3 4 - - - - 10 Cloudy - 23.8 1009.5 0.0
22/01:00am WNW 3 4 - - - - 10 Cloudy - 23.6 1009.6 0.0
22/12:30am WSW 2 3 - - - - 10 Partly cloudy - 23.0 1009.5 0.0
22/12:13am WSW 4 4 - - - - 10 Partly cloudy - 22.9 1009.6 0.0
22/12:00am WSW 4 5 - - - - 10 Partly cloudy - 22.9 1009.6 0.0
 
Date/Time
EDT
Wind Sea
Height
m
Swell Vis
km
Cloud Weather Temp
°C
Press
hPa
Rain since
9am
mm
Dir  Spd
kts
Gust
kts
Height
m
Period
s
Dir
21/11:33pm SW 5 5 - - - - 10 Partly cloudy - 22.9 1009.7 0.0
21/11:30pm SW 5 5 - - - - 10 Partly cloudy - 23.0 1009.7 0.0
21/11:00pm SW 5 5 - - - - 10 Partly cloudy - 22.9 1009.8 0.0
21/10:57pm SW 5 6 - - - - 10 Partly cloudy - 23.0 1009.8 0.0
21/10:30pm SW 5 5 - - - - 10 - - 23.3 1009.9 0.0
21/10:00pm S 3 5 - - - - 10 - - 23.2 1009.9 0.0
21/09:30pm S 5 6 - - - - 10 - - 23.2 1009.8 0.0
21/09:00pm SSE 4 7 - - - - 10 - - 23.7 1009.4 0.0
21/08:30pm S 4 5 - - - - 10 - - 24.2 1008.9 0.0
21/08:00pm S 5 7 - - - - 10 - - 25.2 1008.3 0.0
21/07:30pm ESE 4 5 - - - - 10 - - 26.4 1007.6 0.0
21/07:00pm E 7 9 - - - - 10 - - 27.6 1007.1 0.0
21/06:30pm ENE 5 7 - - - - 10 - - 28.4 1006.5 0.0
21/06:00pm ENE 7 11 - - - - 10 - - 28.3 1006.3 0.0
21/05:30pm ENE 9 12 - - - - 10 - - 28.9 1006.1 0.0
21/05:00pm ENE 9 12 - - - - 10 - - 29.2 1006.2 0.0
21/04:30pm ENE 11 16 - - - - 10 - - 28.7 1006.0 0.0
21/04:00pm ENE 11 14 - - - - 10 - - 28.9 1006.1 0.0
21/03:30pm ENE 11 16 - - - - 10 - - 29.9 1006.0 0.0
21/03:00pm ESE 11 14 - - - - 10 - - 31.7 1006.1 0.0
21/02:30pm E 11 15 - - - - 10 - - 31.3 1006.2 0.0
21/02:00pm ESE 12 15 - - - - 10 - - 32.0 1006.4 0.0
21/01:30pm SE 10 15 - - - - 10 - - 31.4 1006.5 0.0
21/01:00pm SSE 11 14 - - - - 10 - - 32.3 1006.9 0.0
21/12:30pm SE 9 14 - - - - 10 - - 31.2 1007.2 0.0
21/12:00pm SE 10 14 - - - - 10 - - 30.1 1007.4 0.0
21/11:30am SSE 9 13 - - - - 10 - - 30.5 1007.4 0.0
21/11:00am SSE 9 11 - - - - 10 - - 29.9 1007.5 0.0
21/10:30am WNW 5 7 - - - - 10 - - 31.4 1007.4 0.0
21/10:00am NW 5 8 - - - - 10 - - 30.3 1007.5 0.0
21/09:30am NW 6 9 - - - - 10 - - 29.0 1007.3 0.0
21/09:00am WNW 6 9 - - - - 10 - - 28.0 1007.1 0.0
21/08:30am WNW 5 7 - - - - 10 Partly cloudy - 26.4 1006.9 0.0
21/08:00am WNW 5 7 - - - - 10 Partly cloudy - 25.0 1006.8 0.0
21/07:30am NW 3 5 - - - - 10 Partly cloudy - 22.4 1006.6 0.0
21/07:00am CALM 0 0 - - - - 10 Partly cloudy - 20.8 1006.5 0.0
21/06:30am CALM 0 0 - - - - 10 Cloudy - 19.7 1006.1 0.0
21/06:00am CALM 0 0 - - - - 10 Cloudy - 20.0 1005.6 0.0
21/05:30am CALM 0 0 - - - - 10 Cloudy - 20.6 1005.2 0.0
21/05:00am CALM 0 0 - - - - 10 Cloudy - 20.9 1004.9 0.0
21/04:30am CALM 0 0 - - - - 10 Cloudy - 21.4 1004.4 0.0
21/04:00am ENE 1 4 - - - - 10 Cloudy - 22.7 1004.1 0.0
21/03:30am SSW 4 5 - - - - 10 Partly cloudy - 22.2 1004.0 0.0
21/03:00am SSW 4 6 - - - - 10 Cloudy - 21.7 1004.0 0.0
21/02:30am CALM 0 0 - - - - 10 Cloudy - 22.1 1004.2 0.0
21/02:00am CALM 0 0 - - - - 10 Cloudy - 23.3 1004.3 0.0
21/01:30am NE 2 5 - - - - 10 Cloudy - 24.2 1004.3 0.0
21/01:00am CALM 0 3 - - - - 10 Cloudy - 23.6 1004.1 0.0
21/12:30am WNW 4 5 - - - - 10 Cloudy - 24.0 1003.9 0.0
21/12:00am W 3 5 - - - - 10 Partly cloudy - 24.5 1003.9 0.0
 
Date/Time
EDT
Wind Sea
Height
m
Swell Vis
km
Cloud Weather Temp
°C
Press
hPa
Rain since
9am
mm
Dir  Spd
kts
Gust
kts
Height
m
Period
s
Dir
20/11:30pm NNW 4 8 - - - - 10 - - 26.2 1003.7 0.0
20/11:00pm NNE 5 8 - - - - 10 - - 26.5 1004.0 0.0
20/10:30pm WNW 5 7 - - - - 10 - - 26.6 1003.3 0.0
20/10:00pm W 5 6 - - - - 10 - - 26.7 1002.9 0.0
20/09:30pm NNE 7 9 - - - - 10 - - 27.4 1002.5 0.0
20/09:00pm N 5 8 - - - - 10 Cloudy - 27.3 1002.3 0.0
20/08:30pm NE 4 6 - - - - 10 - - 26.6 1002.1 0.0
20/08:00pm SSE 4 5 - - - - 10 - - 26.2 1001.4 0.0
20/07:30pm ENE 5 7 - - - - 10 - - 28.2 1001.5 0.0
20/07:00pm NNE 7 9 - - - - 10 - - 28.5 1001.4 0.0
20/06:30pm ESE 5 9 - - - - 10 Partly cloudy - 28.3 1001.3 0.0
20/06:00pm ESE 6 9 - - - - 10 - - 28.2 1000.8 0.0
20/05:30pm NE 12 17 - - - - 10 - - 29.8 999.4 0.0
20/05:00pm NE 13 17 - - - - 10 - - 30.3 999.8 0.0

Other formats

Comma delimited format used in spreadsheet applications
http://www.bom.gov.au/fwo/IDN60701/IDN60701.94786.axf

JavaScript Object Notation format (JSON) in row-major order
http://www.bom.gov.au/fwo/IDN60701/IDN60701.94786.json

Data quality

Most of these data are generated automatically and are frequently updated. Quality checks on data are not normally performed. It is possible for incorrect values to appear. Refer to information at About Latest Weather Observations and please check the disclaimer before using these data.